KARB/ARB METAR and TAF weather

Enter ICAO airport designator
Station Type Date Time Source
KARB METAR 2019/04/25 01:53 UTC NOAA

KARB 250153Z AUTO 19008KT 10SM CLR 11/02 A2992 RMK AO2 SLP133 T01060022


Station Type Date Time Source
KARB Decoded METAR 2019/04/25 01:53 UTC NOAA

ANN ARBOR MUNICIPAL AIRPORT, MI, United States (KARB) 42-13N 083-45W 251M
Apr 24, 2019 - 09:53 PM EDT / 2019.04.25 0153 UTC
Wind: from the S (190 degrees) at 9 MPH (8 KT):0
Visibility: 10 mile(s):0
Sky conditions: clear
Temperature: 51.1 F (10.6 C)
Dew Point: 36.0 F (2.2 C)
Relative Humidity: 56%
Pressure (altimeter): 29.92 in. Hg (1013 hPa)
ob: KARB 250153Z AUTO 19008KT 10SM CLR 11/02 A2992 RMK AO2 SLP133 T01060022
cycle: 2

Station Type Date Time Source
KARB TAF UTC NOAA

Error!

Example: see airport list